sensor_id;sensor_type;location;lat;lon;timestamp;pressure;altitude;pressure_sealevel;temperature;humidity
70544;BME280;58097;48.364;-1.224;2023-07-16T00:02:22;99322.03;;;15.90;73.14
70544;BME280;58097;48.364;-1.224;2023-07-16T00:04:47;99320.91;;;15.85;74.22
70544;BME280;58097;48.364;-1.224;2023-07-16T00:07:12;99318.97;;;15.78;74.77
70544;BME280;58097;48.364;-1.224;2023-07-16T00:09:38;99322.41;;;15.80;74.14
70544;BME280;58097;48.364;-1.224;2023-07-16T00:12:03;99311.47;;;15.79;74.61
70544;BME280;58097;48.364;-1.224;2023-07-16T00:14:29;99317.91;;;15.79;74.34
70544;BME280;58097;48.364;-1.224;2023-07-16T00:16:54;99317.91;;;15.79;74.59
70544;BME280;58097;48.364;-1.224;2023-07-16T00:19:20;99313.38;;;15.78;75.13
70544;BME280;58097;48.364;-1.224;2023-07-16T00:21:45;99322.16;;;15.75;74.20
70544;BME280;58097;48.364;-1.224;2023-07-16T00:24:10;99310.16;;;15.75;74.85
70544;BME280;58097;48.364;-1.224;2023-07-16T00:26:36;99311.03;;;15.75;74.67
70544;BME280;58097;48.364;-1.224;2023-07-16T00:29:01;99312.09;;;15.81;73.68
70544;BME280;58097;48.364;-1.224;2023-07-16T00:31:26;99301.16;;;15.73;75.22
70544;BME280;58097;48.364;-1.224;2023-07-16T00:33:52;99303.31;;;15.71;75.09
70544;BME280;58097;48.364;-1.224;2023-07-16T00:36:17;99311.88;;;15.69;75.76
70544;BME280;58097;48.364;-1.224;2023-07-16T00:38:42;99306.94;;;15.65;75.70
70544;BME280;58097;48.364;-1.224;2023-07-16T00:41:08;99311.38;;;15.59;75.85
70544;BME280;58097;48.364;-1.224;2023-07-16T00:43:33;99310.69;;;15.57;76.67
70544;BME280;58097;48.364;-1.224;2023-07-16T00:45:59;99310.91;;;15.56;76.79
70544;BME280;58097;48.364;-1.224;2023-07-16T00:48:24;99306.50;;;15.61;75.82
70544;BME280;58097;48.364;-1.224;2023-07-16T00:50:52;99304.75;;;15.60;76.75
70544;BME280;58097;48.364;-1.224;2023-07-16T00:53:17;99303.19;;;15.58;76.71
70544;BME280;58097;48.364;-1.224;2023-07-16T00:55:45;99305.97;;;15.51;77.76
70544;BME280;58097;48.364;-1.224;2023-07-16T00:58:10;99306.63;;;15.53;77.85
70544;BME280;58097;48.364;-1.224;2023-07-16T01:00:37;99305.97;;;15.51;76.90
70544;BME280;58097;48.364;-1.224;2023-07-16T01:03:03;99315.41;;;15.57;76.83
70544;BME280;58097;48.364;-1.224;2023-07-16T01:08:21;99315.38;;;15.50;77.78
70544;BME280;58097;48.364;-1.224;2023-07-16T01:10:50;99322.22;;;15.47;78.61
70544;BME280;58097;48.364;-1.224;2023-07-16T01:13:16;99316.66;;;15.47;77.86
70544;BME280;58097;48.364;-1.224;2023-07-16T01:15:42;99314.75;;;15.55;77.66
70544;BME280;58097;48.364;-1.224;2023-07-16T01:18:07;99324.19;;;15.54;77.95
70544;BME280;58097;48.364;-1.224;2023-07-16T01:20:32;99319.03;;;15.50;78.60
70544;BME280;58097;48.364;-1.224;2023-07-16T01:31:40;99321.16;;;15.42;79.18
70544;BME280;58097;48.364;-1.224;2023-07-16T01:34:06;99316.00;;;15.39;79.33
70544;BME280;58097;48.364;-1.224;2023-07-16T01:36:33;99314.91;;;15.33;78.79
70544;BME280;58097;48.364;-1.224;2023-07-16T01:39:00;99310.41;;;15.39;78.27
70544;BME280;58097;48.364;-1.224;2023-07-16T01:41:26;99315.75;;;15.34;80.11
70544;BME280;58097;48.364;-1.224;2023-07-16T01:43:51;99309.78;;;15.37;78.84
70544;BME280;58097;48.364;-1.224;2023-07-16T01:46:17;99309.13;;;15.35;79.55
70544;BME280;58097;48.364;-1.224;2023-07-16T01:48:43;99311.69;;;15.36;79.37
70544;BME280;58097;48.364;-1.224;2023-07-16T01:51:08;99315.94;;;15.32;79.64
70544;BME280;58097;48.364;-1.224;2023-07-16T01:53:34;99316.81;;;15.33;79.18
70544;BME280;58097;48.364;-1.224;2023-07-16T01:56:01;99320.47;;;15.33;79.38
70544;BME280;58097;48.364;-1.224;2023-07-16T01:58:27;99324.91;;;15.28;80.23
70544;BME280;58097;48.364;-1.224;2023-07-16T02:00:52;99315.03;;;15.25;79.38
70544;BME280;58097;48.364;-1.224;2023-07-16T02:03:18;99315.25;;;15.24;79.13
70544;BME280;58097;48.364;-1.224;2023-07-16T02:05:43;99316.97;;;15.25;79.03
70544;BME280;58097;48.364;-1.224;2023-07-16T02:08:08;99318.91;;;15.24;80.12
70544;BME280;58097;48.364;-1.224;2023-07-16T02:10:34;99321.69;;;15.24;79.99
70544;BME280;58097;48.364;-1.224;2023-07-16T02:12:59;99320.38;;;15.20;80.68
70544;BME280;58097;48.364;-1.224;2023-07-16T02:15:24;99315.88;;;15.19;80.75
70544;BME280;58097;48.364;-1.224;2023-07-16T02:17:50;99311.59;;;15.16;81.50
70544;BME280;58097;48.364;-1.224;2023-07-16T02:20:16;99311.59;;;15.16;81.32
70544;BME280;58097;48.364;-1.224;2023-07-16T02:22:41;99319.72;;;15.18;81.40
70544;BME280;58097;48.364;-1.224;2023-07-16T02:25:07;99315.03;;;15.25;81.39
70544;BME280;58097;48.364;-1.224;2023-07-16T02:27:32;99312.06;;;15.27;80.81
70544;BME280;58097;48.364;-1.224;2023-07-16T02:29:58;99312.28;;;15.32;80.59
70544;BME280;58097;48.364;-1.224;2023-07-16T02:32:23;99315.50;;;15.29;80.99
70544;BME280;58097;48.364;-1.224;2023-07-16T02:34:48;99320.84;;;15.30;80.69
70544;BME280;58097;48.364;-1.224;2023-07-16T02:37:14;99322.19;;;15.34;80.98
70544;BME280;58097;48.364;-1.224;2023-07-16T02:39:41;99318.13;;;15.37;80.80
70544;BME280;58097;48.364;-1.224;2023-07-16T02:42:07;99324.28;;;15.32;81.06
70544;BME280;58097;48.364;-1.224;2023-07-16T02:44:32;99321.25;;;15.27;81.04
70544;BME280;58097;48.364;-1.224;2023-07-16T02:46:57;99320.63;;;15.25;81.31
70544;BME280;58097;48.364;-1.224;2023-07-16T02:49:23;99322.75;;;15.23;81.68
70544;BME280;58097;48.364;-1.224;2023-07-16T02:51:48;99318.44;;;15.21;81.63
70544;BME280;58097;48.364;-1.224;2023-07-16T02:54:14;99319.72;;;15.18;81.54
70544;BME280;58097;48.364;-1.224;2023-07-16T02:56:39;99322.72;;;15.16;81.30
70544;BME280;58097;48.364;-1.224;2023-07-16T02:59:04;99329.59;;;15.21;80.79
70544;BME280;58097;48.364;-1.224;2023-07-16T03:01:30;99325.13;;;15.26;79.88
70544;BME280;58097;48.364;-1.224;2023-07-16T03:03:55;99323.84;;;15.29;79.94
70544;BME280;58097;48.364;-1.224;2023-07-16T03:06:20;99323.44;;;15.32;80.20
70544;BME280;58097;48.364;-1.224;2023-07-16T03:08:46;99330.91;;;15.31;79.92
70544;BME280;58097;48.364;-1.224;2023-07-16T03:11:12;99334.97;;;15.29;80.16
70544;BME280;58097;48.364;-1.224;2023-07-16T03:13:37;99332.59;;;15.26;80.05
70544;BME280;58097;48.364;-1.224;2023-07-16T03:16:03;99330.44;;;15.21;80.10
70544;BME280;58097;48.364;-1.224;2023-07-16T03:18:29;99334.50;;;15.18;80.07
70544;BME280;58097;48.364;-1.224;2023-07-16T03:20:55;99333.16;;;15.08;80.96
70544;BME280;58097;48.364;-1.224;2023-07-16T03:23:21;99326.94;;;15.06;81.02
70544;BME280;58097;48.364;-1.224;2023-07-16T03:25:46;99334.81;;;15.02;81.25
70544;BME280;58097;48.364;-1.224;2023-07-16T03:28:12;99330.97;;;15.03;80.35
70544;BME280;58097;48.364;-1.224;2023-07-16T03:30:38;99337.59;;;15.02;80.58
70544;BME280;58097;48.364;-1.224;2023-07-16T03:33:04;99334.13;;;14.94;81.85
70544;BME280;58097;48.364;-1.224;2023-07-16T03:35:30;99337.31;;;14.91;81.52
70544;BME280;58097;48.364;-1.224;2023-07-16T03:37:55;99344.78;;;14.90;81.88
70544;BME280;58097;48.364;-1.224;2023-07-16T03:40:24;99335.38;;;14.91;81.38
70544;BME280;58097;48.364;-1.224;2023-07-16T03:42:50;99346.28;;;14.86;82.80
70544;BME280;58097;48.364;-1.224;2023-07-16T03:45:15;99344.56;;;14.85;82.32
70544;BME280;58097;48.364;-1.224;2023-07-16T03:47:40;99344.34;;;14.86;82.41
70544;BME280;58097;48.364;-1.224;2023-07-16T03:50:06;99344.75;;;14.83;82.41
70544;BME280;58097;48.364;-1.224;2023-07-16T03:52:32;99339.59;;;14.80;81.67
70544;BME280;58097;48.364;-1.224;2023-07-16T03:54:57;99335.34;;;14.84;81.57
70544;BME280;58097;48.364;-1.224;2023-07-16T03:57:23;99346.22;;;14.79;83.06
70544;BME280;58097;48.364;-1.224;2023-07-16T03:59:48;99350.72;;;14.80;82.31
70544;BME280;58097;48.364;-1.224;2023-07-16T04:02:13;99353.31;;;14.82;82.55
70544;BME280;58097;48.364;-1.224;2023-07-16T04:04:39;99356.28;;;14.80;82.32
70544;BME280;58097;48.364;-1.224;2023-07-16T04:07:04;99354.81;;;14.84;81.97
70544;BME280;58097;48.364;-1.224;2023-07-16T04:09:30;99352.50;;;14.88;81.85
70544;BME280;58097;48.364;-1.224;2023-07-16T04:11:55;99359.38;;;14.92;82.23
70544;BME280;58097;48.364;-1.224;2023-07-16T04:14:20;99364.47;;;14.88;82.14
70544;BME280;58097;48.364;-1.224;2023-07-16T04:16:46;99365.75;;;14.86;81.77
70544;BME280;58097;48.364;-1.224;2023-07-16T04:19:11;99366.81;;;14.85;81.74
70544;BME280;58097;48.364;-1.224;2023-07-16T04:21:36;99362.72;;;14.81;82.81
70544;BME280;58097;48.364;-1.224;2023-07-16T04:24:02;99368.69;;;14.78;82.89
70544;BME280;58097;48.364;-1.224;2023-07-16T04:26:28;99374.66;;;14.75;83.09
70544;BME280;58097;48.364;-1.224;2023-07-16T04:28:54;99377.16;;;14.70;83.37
70544;BME280;58097;48.364;-1.224;2023-07-16T04:31:19;99379.72;;;14.71;82.59
70544;BME280;58097;48.364;-1.224;2023-07-16T04:33:44;99380.78;;;14.70;83.50
70544;BME280;58097;48.364;-1.224;2023-07-16T04:36:10;99382.91;;;14.68;83.61
70544;BME280;58097;48.364;-1.224;2023-07-16T04:38:35;99393.63;;;14.71;83.32
70544;BME280;58097;48.364;-1.224;2023-07-16T04:41:01;99385.28;;;14.71;83.32
70544;BME280;58097;48.364;-1.224;2023-07-16T04:43:26;99392.13;;;14.69;83.35
70544;BME280;58097;48.364;-1.224;2023-07-16T04:45:51;99397.47;;;14.70;83.78
70544;BME280;58097;48.364;-1.224;2023-07-16T04:48:16;99401.84;;;14.79;82.88
70544;BME280;58097;48.364;-1.224;2023-07-16T04:50:42;99399.94;;;14.80;83.82
70544;BME280;58097;48.364;-1.224;2023-07-16T04:53:07;99401.44;;;14.82;83.63
70544;BME280;58097;48.364;-1.224;2023-07-16T04:55:39;99402.31;;;14.83;84.44
70544;BME280;58097;48.364;-1.224;2023-07-16T04:58:05;99404.63;;;14.79;85.00
70544;BME280;58097;48.364;-1.224;2023-07-16T05:00:32;99410.66;;;14.83;84.61
70544;BME280;58097;48.364;-1.224;2023-07-16T05:02:58;99411.66;;;14.75;85.61
70544;BME280;58097;48.364;-1.224;2023-07-16T05:05:23;99413.59;;;14.75;85.66
70544;BME280;58097;48.364;-1.224;2023-07-16T05:07:48;99416.16;;;14.76;85.96
70544;BME280;58097;48.364;-1.224;2023-07-16T05:10:14;99412.31;;;14.77;85.75
70544;BME280;58097;48.364;-1.224;2023-07-16T05:12:39;99410.19;;;14.79;86.27
70544;BME280;58097;48.364;-1.224;2023-07-16T05:15:05;99414.50;;;14.82;86.17
70544;BME280;58097;48.364;-1.224;2023-07-16T05:17:30;99409.78;;;14.82;86.26
70544;BME280;58097;48.364;-1.224;2023-07-16T05:19:55;99424.56;;;14.83;86.48
70544;BME280;58097;48.364;-1.224;2023-07-16T05:22:21;99421.59;;;14.84;86.52
70544;BME280;58097;48.364;-1.224;2023-07-16T05:24:46;99421.13;;;14.81;87.75
70544;BME280;58097;48.364;-1.224;2023-07-16T05:27:11;99421.38;;;14.86;87.48
70544;BME280;58097;48.364;-1.224;2023-07-16T05:29:37;99421.19;;;14.87;87.26
70544;BME280;58097;48.364;-1.224;2023-07-16T05:32:03;99429.78;;;14.93;87.12
70544;BME280;58097;48.364;-1.224;2023-07-16T05:34:28;99421.22;;;14.94;87.53
70544;BME280;58097;48.364;-1.224;2023-07-16T05:36:54;99422.94;;;14.95;87.65
70544;BME280;58097;48.364;-1.224;2023-07-16T05:39:21;99431.28;;;14.95;87.98
70544;BME280;58097;48.364;-1.224;2023-07-16T05:41:46;99432.19;;;15.02;87.15
70544;BME280;58097;48.364;-1.224;2023-07-16T05:44:12;99433.47;;;15.00;87.70
70544;BME280;58097;48.364;-1.224;2023-07-16T05:46:37;99434.41;;;15.07;87.37
70544;BME280;58097;48.364;-1.224;2023-07-16T05:49:02;99441.53;;;15.16;87.04
70544;BME280;58097;48.364;-1.224;2023-07-16T05:51:28;99440.06;;;15.20;87.18
70544;BME280;58097;48.364;-1.224;2023-07-16T05:53:53;99449.09;;;15.29;86.62
70544;BME280;58097;48.364;-1.224;2023-07-16T05:56:18;99445.53;;;15.35;86.59
70544;BME280;58097;48.364;-1.224;2023-07-16T05:58:44;99447.91;;;15.38;86.39
70544;BME280;58097;48.364;-1.224;2023-07-16T06:01:09;99445.78;;;15.40;86.53
70544;BME280;58097;48.364;-1.224;2023-07-16T06:03:34;99440.91;;;15.48;85.76
70544;BME280;58097;48.364;-1.224;2023-07-16T06:06:00;99448.63;;;15.53;85.96
70544;BME280;58097;48.364;-1.224;2023-07-16T06:08:25;99454.22;;;15.53;86.59
70544;BME280;58097;48.364;-1.224;2023-07-16T06:10:51;99455.72;;;15.56;86.01
70544;BME280;58097;48.364;-1.224;2023-07-16T06:13:16;99454.28;;;15.60;85.99
70544;BME280;58097;48.364;-1.224;2023-07-16T06:15:42;99462.03;;;15.64;86.43
70544;BME280;58097;48.364;-1.224;2023-07-16T06:18:08;99456.91;;;15.68;86.38
70544;BME280;58097;48.364;-1.224;2023-07-16T06:20:33;99458.03;;;15.73;86.01
70544;BME280;58097;48.364;-1.224;2023-07-16T06:22:59;99467.06;;;15.82;85.51
70544;BME280;58097;48.364;-1.224;2023-07-16T06:25:24;99463.66;;;15.87;85.57
70544;BME280;58097;48.364;-1.224;2023-07-16T06:27:49;99466.69;;;15.92;85.21
70544;BME280;58097;48.364;-1.224;2023-07-16T06:30:15;99475.72;;;15.94;85.24
70544;BME280;58097;48.364;-1.224;2023-07-16T06:32:40;99477.84;;;15.92;85.43
70544;BME280;58097;48.364;-1.224;2023-07-16T06:35:06;99483.38;;;15.85;85.49
70544;BME280;58097;48.364;-1.224;2023-07-16T06:37:31;99479.06;;;15.83;85.98
70544;BME280;58097;48.364;-1.224;2023-07-16T06:39:57;99476.50;;;15.88;85.70
70544;BME280;58097;48.364;-1.224;2023-07-16T06:42:22;99478.22;;;15.89;85.77
70544;BME280;58097;48.364;-1.224;2023-07-16T06:44:47;99480.44;;;15.93;85.66
70544;BME280;58097;48.364;-1.224;2023-07-16T06:47:13;99479.50;;;15.86;86.06
70544;BME280;58097;48.364;-1.224;2023-07-16T06:49:38;99482.56;;;15.91;85.50
70544;BME280;58097;48.364;-1.224;2023-07-16T06:52:04;99487.31;;;15.97;85.16
70544;BME280;58097;48.364;-1.224;2023-07-16T06:54:29;99488.59;;;16.01;85.47
70544;BME280;58097;48.364;-1.224;2023-07-16T06:56:54;99484.78;;;16.09;85.37
70544;BME280;58097;48.364;-1.224;2023-07-16T06:59:20;99491.88;;;16.18;85.09
70544;BME280;58097;48.364;-1.224;2023-07-16T07:01:45;99494.28;;;16.21;84.33
70544;BME280;58097;48.364;-1.224;2023-07-16T07:04:10;99499.44;;;16.24;84.49
70544;BME280;58097;48.364;-1.224;2023-07-16T07:06:36;99503.31;;;16.30;84.04
70544;BME280;58097;48.364;-1.224;2023-07-16T07:09:01;99506.34;;;16.35;83.53
70544;BME280;58097;48.364;-1.224;2023-07-16T07:11:27;99507.19;;;16.35;83.47
70544;BME280;58097;48.364;-1.224;2023-07-16T07:13:52;99505.47;;;16.34;83.48
70544;BME280;58097;48.364;-1.224;2023-07-16T07:16:18;99512.34;;;16.32;83.94
70544;BME280;58097;48.364;-1.224;2023-07-16T07:18:43;99517.50;;;16.41;83.72
70544;BME280;58097;48.364;-1.224;2023-07-16T07:21:08;99522.22;;;16.41;84.00
70544;BME280;58097;48.364;-1.224;2023-07-16T07:23:34;99525.03;;;16.48;83.46
70544;BME280;58097;48.364;-1.224;2023-07-16T07:25:59;99525.09;;;16.54;83.07
70544;BME280;58097;48.364;-1.224;2023-07-16T07:28:25;99529.63;;;16.62;82.59
70544;BME280;58097;48.364;-1.224;2023-07-16T07:30:50;99531.34;;;16.63;82.53
70544;BME280;58097;48.364;-1.224;2023-07-16T07:33:16;99531.97;;;16.65;82.11
70544;BME280;58097;48.364;-1.224;2023-07-16T07:35:41;99530.53;;;16.69;81.89
70544;BME280;58097;48.364;-1.224;2023-07-16T07:38:06;99535.50;;;16.80;81.91
70544;BME280;58097;48.364;-1.224;2023-07-16T07:40:32;99540.69;;;16.96;81.63
70544;BME280;58097;48.364;-1.224;2023-07-16T07:42:57;99538.31;;;17.00;81.08
70544;BME280;58097;48.364;-1.224;2023-07-16T07:45:24;99543.09;;;17.06;80.67
70544;BME280;58097;48.364;-1.224;2023-07-16T07:47:50;99553.59;;;17.11;79.98
70544;BME280;58097;48.364;-1.224;2023-07-16T07:50:15;99551.47;;;17.13;79.55
70544;BME280;58097;48.364;-1.224;2023-07-16T07:52:41;99553.81;;;17.09;78.80
70544;BME280;58097;48.364;-1.224;2023-07-16T07:55:06;99557.69;;;17.15;79.18
70544;BME280;58097;48.364;-1.224;2023-07-16T07:57:32;99556.41;;;17.17;78.49
70544;BME280;58097;48.364;-1.224;2023-07-16T07:59:57;99559.84;;;17.26;78.20
70544;BME280;58097;48.364;-1.224;2023-07-16T08:02:25;99562.41;;;17.27;78.53
70544;BME280;58097;48.364;-1.224;2023-07-16T08:04:51;99562.84;;;17.31;78.39
70544;BME280;58097;48.364;-1.224;2023-07-16T08:07:17;99561.13;;;17.30;78.45
70544;BME280;58097;48.364;-1.224;2023-07-16T08:09:42;99567.38;;;17.32;78.74
70544;BME280;58097;48.364;-1.224;2023-07-16T08:12:08;99574.03;;;17.31;80.02
70544;BME280;58097;48.364;-1.224;2023-07-16T08:14:33;99583.25;;;17.25;81.67
70544;BME280;58097;48.364;-1.224;2023-07-16T08:16:59;99574.44;;;17.21;82.14
70544;BME280;58097;48.364;-1.224;2023-07-16T08:19:24;99582.19;;;17.26;81.08
70544;BME280;58097;48.364;-1.224;2023-07-16T08:21:49;99576.81;;;17.31;80.72
70544;BME280;58097;48.364;-1.224;2023-07-16T08:24:15;99586.53;;;17.35;81.69
70544;BME280;58097;48.364;-1.224;2023-07-16T08:26:40;99586.94;;;17.45;81.39
70544;BME280;58097;48.364;-1.224;2023-07-16T08:29:06;99591.22;;;17.61;81.90
70544;BME280;58097;48.364;-1.224;2023-07-16T08:31:31;99589.13;;;17.83;81.59
70544;BME280;58097;48.364;-1.224;2023-07-16T08:33:56;99582.03;;;18.00;81.09
70544;BME280;58097;48.364;-1.224;2023-07-16T08:36:22;99585.84;;;18.25;81.03
70544;BME280;58097;48.364;-1.224;2023-07-16T08:38:47;99579.53;;;18.43;79.81
70544;BME280;58097;48.364;-1.224;2023-07-16T08:41:14;99582.53;;;18.55;77.97
70544;BME280;58097;48.364;-1.224;2023-07-16T08:43:39;99583.34;;;18.69;77.21
70544;BME280;58097;48.364;-1.224;2023-07-16T08:46:05;99579.44;;;18.83;76.23
70544;BME280;58097;48.364;-1.224;2023-07-16T08:48:31;99585.84;;;18.90;75.39
70544;BME280;58097;48.364;-1.224;2023-07-16T08:50:58;99594.88;;;18.92;73.40
70544;BME280;58097;48.364;-1.224;2023-07-16T08:53:26;99586.47;;;18.92;73.12
70544;BME280;58097;48.364;-1.224;2023-07-16T08:55:52;99590.19;;;18.86;71.94
70544;BME280;58097;48.364;-1.224;2023-07-16T08:58:17;99591.50;;;18.77;72.73
70544;BME280;58097;48.364;-1.224;2023-07-16T09:00:44;99590.22;;;18.79;73.39
70544;BME280;58097;48.364;-1.224;2023-07-16T09:03:11;99583.34;;;18.69;71.80
70544;BME280;58097;48.364;-1.224;2023-07-16T09:05:38;99582.09;;;18.65;71.40
70544;BME280;58097;48.364;-1.224;2023-07-16T09:08:04;99588.53;;;18.58;71.55
70544;BME280;58097;48.364;-1.224;2023-07-16T09:10:29;99592.41;;;18.64;71.59
70544;BME280;58097;48.364;-1.224;2023-07-16T09:12:57;99593.91;;;18.67;70.85
70544;BME280;58097;48.364;-1.224;2023-07-16T09:15:23;99586.75;;;18.77;72.06
70544;BME280;58097;48.364;-1.224;2023-07-16T09:17:49;99580.91;;;18.85;70.52
70544;BME280;58097;48.364;-1.224;2023-07-16T09:20:16;99585.31;;;19.13;71.34
70544;BME280;58097;48.364;-1.224;2023-07-16T09:22:42;99581.03;;;19.35;71.85
70544;BME280;58097;48.364;-1.224;2023-07-16T09:25:08;99577.25;;;19.23;70.04
70544;BME280;58097;48.364;-1.224;2023-07-16T09:27:33;99579.53;;;19.33;69.56
70544;BME280;58097;48.364;-1.224;2023-07-16T09:29:59;99584.28;;;19.39;70.28
70544;BME280;58097;48.364;-1.224;2023-07-16T09:32:37;99581.81;;;19.49;69.96
70544;BME280;58097;48.364;-1.224;2023-07-16T09:35:09;99571.59;;;19.61;70.53
70544;BME280;58097;48.364;-1.224;2023-07-16T09:37:37;99577.28;;;19.79;70.80
70544;BME280;58097;48.364;-1.224;2023-07-16T09:40:05;99584.31;;;19.89;69.29
70544;BME280;58097;48.364;-1.224;2023-07-16T09:42:36;99576.13;;;19.87;67.28
70544;BME280;58097;48.364;-1.224;2023-07-16T09:45:02;99572.06;;;19.83;68.06
70544;BME280;58097;48.364;-1.224;2023-07-16T09:47:27;99574.94;;;19.76;67.91
70544;BME280;58097;48.364;-1.224;2023-07-16T09:49:53;99576.25;;;19.74;67.52
70544;BME280;58097;48.364;-1.224;2023-07-16T09:52:18;99583.50;;;19.57;67.31
70544;BME280;58097;48.364;-1.224;2023-07-16T09:54:46;99579.28;;;19.41;67.75
70544;BME280;58097;48.364;-1.224;2023-07-16T09:57:12;99587.81;;;19.21;68.60
70544;BME280;58097;48.364;-1.224;2023-07-16T09:59:39;99600.41;;;19.05;71.19
70544;BME280;58097;48.364;-1.224;2023-07-16T10:02:06;99605.44;;;18.90;72.36
70544;BME280;58097;48.364;-1.224;2023-07-16T10:04:38;99599.25;;;18.81;73.52
70544;BME280;58097;48.364;-1.224;2023-07-16T10:07:19;99589.56;;;18.77;75.59
70544;BME280;58097;48.364;-1.224;2023-07-16T10:09:55;99604.00;;;18.74;75.63
70544;BME280;58097;48.364;-1.224;2023-07-16T10:12:23;99602.53;;;18.65;76.25
70544;BME280;58097;48.364;-1.224;2023-07-16T10:14:53;99601.66;;;18.71;76.13
70544;BME280;58097;48.364;-1.224;2023-07-16T10:17:26;99604.41;;;18.84;76.67
70544;BME280;58097;48.364;-1.224;2023-07-16T10:22:18;99598.91;;;19.03;77.09
70544;BME280;58097;48.364;-1.224;2023-07-16T10:24:43;99601.19;;;19.19;77.13
70544;BME280;58097;48.364;-1.224;2023-07-16T10:27:09;99597.44;;;19.32;77.46
70544;BME280;58097;48.364;-1.224;2023-07-16T10:29:38;99601.84;;;19.53;77.36
70544;BME280;58097;48.364;-1.224;2023-07-16T10:32:05;99596.75;;;19.74;76.97
70544;BME280;58097;48.364;-1.224;2023-07-16T10:34:35;99597.88;;;19.92;76.87
70544;BME280;58097;48.364;-1.224;2023-07-16T10:37:00;99594.97;;;20.05;76.38
70544;BME280;58097;48.364;-1.224;2023-07-16T10:39:26;99603.53;;;20.10;76.00
70544;BME280;58097;48.364;-1.224;2023-07-16T10:41:51;99600.81;;;20.03;75.87
70544;BME280;58097;48.364;-1.224;2023-07-16T10:44:16;99598.97;;;19.91;75.60
70544;BME280;58097;48.364;-1.224;2023-07-16T10:46:42;99608.81;;;19.75;75.42
70544;BME280;58097;48.364;-1.224;2023-07-16T10:49:07;99609.34;;;19.59;75.71
70544;BME280;58097;48.364;-1.224;2023-07-16T10:51:33;99604.28;;;19.42;75.69
70544;BME280;58097;48.364;-1.224;2023-07-16T10:53:58;99610.34;;;19.39;76.39
70544;BME280;58097;48.364;-1.224;2023-07-16T10:56:25;99604.28;;;19.42;76.90
70544;BME280;58097;48.364;-1.224;2023-07-16T10:58:50;99605.31;;;19.48;77.30
70544;BME280;58097;48.364;-1.224;2023-07-16T11:01:16;99596.59;;;19.63;77.03
70544;BME280;58097;48.364;-1.224;2023-07-16T11:03:41;99603.78;;;19.84;77.05
70544;BME280;58097;48.364;-1.224;2023-07-16T11:06:08;99593.72;;;20.01;74.73
70544;BME280;58097;48.364;-1.224;2023-07-16T11:08:34;99593.41;;;20.09;75.13
70544;BME280;58097;48.364;-1.224;2023-07-16T11:11:00;99585.50;;;20.24;75.45
70544;BME280;58097;48.364;-1.224;2023-07-16T11:13:29;99587.88;;;20.46;74.75
70544;BME280;58097;48.364;-1.224;2023-07-16T11:15:56;99580.94;;;20.66;76.60
70544;BME280;58097;48.364;-1.224;2023-07-16T11:18:24;99580.50;;;20.81;74.35
70544;BME280;58097;48.364;-1.224;2023-07-16T11:20:53;99585.91;;;20.83;71.81
70544;BME280;58097;48.364;-1.224;2023-07-16T11:23:18;99587.63;;;20.84;71.53
70544;BME280;58097;48.364;-1.224;2023-07-16T11:25:48;99577.09;;;20.79;70.87
70544;BME280;58097;48.364;-1.224;2023-07-16T11:28:13;99582.56;;;20.74;71.17
70544;BME280;58097;48.364;-1.224;2023-07-16T11:30:39;99576.16;;;20.67;70.68
70544;BME280;58097;48.364;-1.224;2023-07-16T11:33:12;99579.34;;;20.52;69.85
70544;BME280;58097;48.364;-1.224;2023-07-16T11:35:38;99588.09;;;20.44;71.71
70544;BME280;58097;48.364;-1.224;2023-07-16T11:38:06;99605.34;;;20.23;71.18
70544;BME280;58097;48.364;-1.224;2023-07-16T11:40:36;99621.91;;;19.81;72.82
70544;BME280;58097;48.364;-1.224;2023-07-16T11:43:10;99614.00;;;19.40;72.48
70544;BME280;58097;48.364;-1.224;2023-07-16T11:45:36;99620.63;;;19.07;74.75
70544;BME280;58097;48.364;-1.224;2023-07-16T11:48:02;99613.88;;;18.83;75.83
70544;BME280;58097;48.364;-1.224;2023-07-16T11:50:28;99618.03;;;18.68;77.01
70544;BME280;58097;48.364;-1.224;2023-07-16T11:52:55;99618.06;;;18.54;77.83
70544;BME280;58097;48.364;-1.224;2023-07-16T11:55:21;99610.50;;;18.55;78.63
70544;BME280;58097;48.364;-1.224;2023-07-16T11:57:47;99601.03;;;18.49;79.83
70544;BME280;58097;48.364;-1.224;2023-07-16T12:00:12;99612.22;;;18.56;79.17
70544;BME280;58097;48.364;-1.224;2023-07-16T12:02:38;99609.63;;;18.61;80.33
70544;BME280;58097;48.364;-1.224;2023-07-16T12:05:03;99616.50;;;18.72;79.11
70544;BME280;58097;48.364;-1.224;2023-07-16T12:07:34;99617.97;;;18.87;80.31
70544;BME280;58097;48.364;-1.224;2023-07-16T12:10:00;99617.31;;;18.85;77.86
70544;BME280;58097;48.364;-1.224;2023-07-16T12:12:26;99619.03;;;18.86;77.75
70544;BME280;58097;48.364;-1.224;2023-07-16T12:14:51;99633.25;;;18.85;77.17
70544;BME280;58097;48.364;-1.224;2023-07-16T12:17:16;99620.75;;;18.87;77.82
70544;BME280;58097;48.364;-1.224;2023-07-16T12:19:42;99620.09;;;18.92;76.98
70544;BME280;58097;48.364;-1.224;2023-07-16T12:22:08;99623.28;;;18.96;77.23
70544;BME280;58097;48.364;-1.224;2023-07-16T12:24:34;99623.88;;;19.04;76.80
70544;BME280;58097;48.364;-1.224;2023-07-16T12:26:59;99624.53;;;19.06;76.56
70544;BME280;58097;48.364;-1.224;2023-07-16T12:29:24;99622.81;;;19.05;78.32
70544;BME280;58097;48.364;-1.224;2023-07-16T12:31:50;99622.41;;;19.02;77.61
70544;BME280;58097;48.364;-1.224;2023-07-16T12:34:15;99621.94;;;19.05;77.36
70544;BME280;58097;48.364;-1.224;2023-07-16T12:36:40;99616.06;;;19.19;77.64
70544;BME280;58097;48.364;-1.224;2023-07-16T12:39:06;99619.84;;;19.32;76.82
70544;BME280;58097;48.364;-1.224;2023-07-16T12:41:31;99621.03;;;19.49;77.41
70544;BME280;58097;48.364;-1.224;2023-07-16T12:43:56;99620.56;;;19.59;76.70
70544;BME280;58097;48.364;-1.224;2023-07-16T12:46:22;99614.75;;;19.60;75.47
70544;BME280;58097;48.364;-1.224;2023-07-16T12:48:47;99618.09;;;19.75;76.72
70544;BME280;58097;48.364;-1.224;2023-07-16T12:51:12;99612.94;;;19.97;76.38
70544;BME280;58097;48.364;-1.224;2023-07-16T12:53:38;99610.28;;;20.27;76.43
70544;BME280;58097;48.364;-1.224;2023-07-16T12:56:03;99612.72;;;20.42;75.25
70544;BME280;58097;48.364;-1.224;2023-07-16T12:58:29;99607.56;;;20.39;73.21